sensor_id;sensor_type;location;lat;lon;timestamp;temperature;humidity
18047;DHT22;9148;51.454;13.862;2024-02-26T00:01:23;1.20;99.90
18047;DHT22;9148;51.454;13.862;2024-02-26T00:03:49;1.00;99.90
18047;DHT22;9148;51.454;13.862;2024-02-26T00:06:15;1.00;99.90
18047;DHT22;9148;51.454;13.862;2024-02-26T00:08:41;1.10;99.90
18047;DHT22;9148;51.454;13.862;2024-02-26T00:11:07;0.90;99.90
18047;DHT22;9148;51.454;13.862;2024-02-26T00:13:32;0.90;99.90
18047;DHT22;9148;51.454;13.862;2024-02-26T00:15:58;0.90;99.90
18047;DHT22;9148;51.454;13.862;2024-02-26T00:18:24;0.80;99.90
18047;DHT22;9148;51.454;13.862;2024-02-26T00:20:49;0.80;99.90
18047;DHT22;9148;51.454;13.862;2024-02-26T00:23:15;0.90;99.90
18047;DHT22;9148;51.454;13.862;2024-02-26T00:25:41;0.80;99.90
18047;DHT22;9148;51.454;13.862;2024-02-26T00:28:09;0.90;99.90
18047;DHT22;9148;51.454;13.862;2024-02-26T00:30:35;0.80;99.90
18047;DHT22;9148;51.454;13.862;2024-02-26T00:33:01;0.70;99.90
18047;DHT22;9148;51.454;13.862;2024-02-26T00:35:27;0.80;99.90
18047;DHT22;9148;51.454;13.862;2024-02-26T00:37:52;0.80;99.90
18047;DHT22;9148;51.454;13.862;2024-02-26T00:40:18;0.70;99.90
18047;DHT22;9148;51.454;13.862;2024-02-26T00:42:44;0.70;99.90
18047;DHT22;9148;51.454;13.862;2024-02-26T00:45:12;0.70;99.90
18047;DHT22;9148;51.454;13.862;2024-02-26T00:47:38;0.60;99.90
18047;DHT22;9148;51.454;13.862;2024-02-26T00:50:06;0.60;99.90
18047;DHT22;9148;51.454;13.862;2024-02-26T00:52:33;0.60;99.90
18047;DHT22;9148;51.454;13.862;2024-02-26T00:55:00;0.70;99.90
18047;DHT22;9148;51.454;13.862;2024-02-26T00:57:26;0.70;99.90
18047;DHT22;9148;51.454;13.862;2024-02-26T00:59:52;1.50;99.90
18047;DHT22;9148;51.454;13.862;2024-02-26T01:02:17;0.60;99.90
18047;DHT22;9148;51.454;13.862;2024-02-26T01:04:43;0.50;99.90
18047;DHT22;9148;51.454;13.862;2024-02-26T01:07:09;0.40;99.90
18047;DHT22;9148;51.454;13.862;2024-02-26T01:09:34;0.50;99.90
18047;DHT22;9148;51.454;13.862;2024-02-26T01:12:00;0.50;99.90
18047;DHT22;9148;51.454;13.862;2024-02-26T01:14:27;0.40;99.90
18047;DHT22;9148;51.454;13.862;2024-02-26T01:16:53;0.70;99.90
18047;DHT22;9148;51.454;13.862;2024-02-26T01:19:19;0.50;99.90
18047;DHT22;9148;51.454;13.862;2024-02-26T01:21:44;0.50;99.90
18047;DHT22;9148;51.454;13.862;2024-02-26T01:24:10;0.50;99.90
18047;DHT22;9148;51.454;13.862;2024-02-26T01:26:36;0.50;99.90
18047;DHT22;9148;51.454;13.862;2024-02-26T01:29:01;0.50;99.90
18047;DHT22;9148;51.454;13.862;2024-02-26T01:31:27;0.40;99.90
18047;DHT22;9148;51.454;13.862;2024-02-26T01:33:53;0.40;99.90
18047;DHT22;9148;51.454;13.862;2024-02-26T01:36:18;0.40;99.90
18047;DHT22;9148;51.454;13.862;2024-02-26T01:38:44;0.40;99.90
18047;DHT22;9148;51.454;13.862;2024-02-26T01:41:10;0.30;99.90
18047;DHT22;9148;51.454;13.862;2024-02-26T01:43:35;1.50;99.90
18047;DHT22;9148;51.454;13.862;2024-02-26T01:46:01;0.40;99.90
18047;DHT22;9148;51.454;13.862;2024-02-26T01:48:28;0.30;99.90
18047;DHT22;9148;51.454;13.862;2024-02-26T01:50:53;0.40;99.90
18047;DHT22;9148;51.454;13.862;2024-02-26T01:53:19;0.40;99.90
18047;DHT22;9148;51.454;13.862;2024-02-26T01:55:45;0.30;99.90
18047;DHT22;9148;51.454;13.862;2024-02-26T01:58:11;0.40;99.90
18047;DHT22;9148;51.454;13.862;2024-02-26T02:00:37;0.30;99.90
18047;DHT22;9148;51.454;13.862;2024-02-26T02:03:04;0.30;99.90
18047;DHT22;9148;51.454;13.862;2024-02-26T02:05:30;0.20;99.90
18047;DHT22;9148;51.454;13.862;2024-02-26T02:07:57;0.20;99.90
18047;DHT22;9148;51.454;13.862;2024-02-26T02:10:24;0.10;99.90
18047;DHT22;9148;51.454;13.862;2024-02-26T02:12:51;0.70;99.90
18047;DHT22;9148;51.454;13.862;2024-02-26T02:15:17;1.00;99.90
18047;DHT22;9148;51.454;13.862;2024-02-26T02:17:43;0.30;99.90
18047;DHT22;9148;51.454;13.862;2024-02-26T02:20:18;0.20;99.90
18047;DHT22;9148;51.454;13.862;2024-02-26T02:22:47;0.20;99.90
18047;DHT22;9148;51.454;13.862;2024-02-26T02:25:13;0.30;99.90
18047;DHT22;9148;51.454;13.862;2024-02-26T02:27:39;0.30;99.90
18047;DHT22;9148;51.454;13.862;2024-02-26T02:30:06;0.30;99.90
18047;DHT22;9148;51.454;13.862;2024-02-26T02:32:33;0.30;99.90
18047;DHT22;9148;51.454;13.862;2024-02-26T02:34:59;0.30;99.90
18047;DHT22;9148;51.454;13.862;2024-02-26T02:37:24;0.30;99.90
18047;DHT22;9148;51.454;13.862;2024-02-26T02:39:50;0.40;99.90
18047;DHT22;9148;51.454;13.862;2024-02-26T02:42:16;0.30;99.90
18047;DHT22;9148;51.454;13.862;2024-02-26T02:44:42;0.60;99.90
18047;DHT22;9148;51.454;13.862;2024-02-26T02:47:09;0.40;99.90
18047;DHT22;9148;51.454;13.862;2024-02-26T02:49:35;0.30;99.90
18047;DHT22;9148;51.454;13.862;2024-02-26T02:52:01;0.30;99.90
18047;DHT22;9148;51.454;13.862;2024-02-26T02:54:27;0.30;99.90
18047;DHT22;9148;51.454;13.862;2024-02-26T02:56:52;0.30;99.90
18047;DHT22;9148;51.454;13.862;2024-02-26T02:59:18;0.30;99.90
18047;DHT22;9148;51.454;13.862;2024-02-26T03:01:44;0.30;99.90
18047;DHT22;9148;51.454;13.862;2024-02-26T03:04:09;0.70;99.90
18047;DHT22;9148;51.454;13.862;2024-02-26T03:06:35;0.40;99.90
18047;DHT22;9148;51.454;13.862;2024-02-26T03:09:01;0.30;99.90
18047;DHT22;9148;51.454;13.862;2024-02-26T03:11:26;0.30;99.90
18047;DHT22;9148;51.454;13.862;2024-02-26T03:13:52;0.20;99.90
18047;DHT22;9148;51.454;13.862;2024-02-26T03:16:17;0.40;99.90
18047;DHT22;9148;51.454;13.862;2024-02-26T03:18:44;-0.40;99.90
18047;DHT22;9148;51.454;13.862;2024-02-26T03:21:09;0.40;99.90
18047;DHT22;9148;51.454;13.862;2024-02-26T03:23:35;0.20;99.90
18047;DHT22;9148;51.454;13.862;2024-02-26T03:26:03;0.10;99.90
18047;DHT22;9148;51.454;13.862;2024-02-26T03:28:29;0.20;99.90
18047;DHT22;9148;51.454;13.862;2024-02-26T03:30:56;0.30;99.90
18047;DHT22;9148;51.454;13.862;2024-02-26T03:33:21;0.30;99.90
18047;DHT22;9148;51.454;13.862;2024-02-26T03:35:47;0.30;99.90
18047;DHT22;9148;51.454;13.862;2024-02-26T03:38:13;0.30;99.90
18047;DHT22;9148;51.454;13.862;2024-02-26T03:40:39;0.50;99.90
18047;DHT22;9148;51.454;13.862;2024-02-26T03:43:04;0.50;99.90
18047;DHT22;9148;51.454;13.862;2024-02-26T03:45:32;0.40;99.90
18047;DHT22;9148;51.454;13.862;2024-02-26T03:47:58;0.40;99.90
18047;DHT22;9148;51.454;13.862;2024-02-26T03:50:24;0.50;99.90
18047;DHT22;9148;51.454;13.862;2024-02-26T03:52:50;0.70;99.90
18047;DHT22;9148;51.454;13.862;2024-02-26T03:55:15;0.60;99.90
18047;DHT22;9148;51.454;13.862;2024-02-26T03:57:46;0.50;99.90
18047;DHT22;9148;51.454;13.862;2024-02-26T04:00:12;0.60;99.90
18047;DHT22;9148;51.454;13.862;2024-02-26T04:02:38;0.60;99.90
18047;DHT22;9148;51.454;13.862;2024-02-26T04:05:04;0.60;99.90
18047;DHT22;9148;51.454;13.862;2024-02-26T04:07:30;0.60;99.90
18047;DHT22;9148;51.454;13.862;2024-02-26T04:09:56;0.60;99.90
18047;DHT22;9148;51.454;13.862;2024-02-26T04:12:22;0.70;99.90
18047;DHT22;9148;51.454;13.862;2024-02-26T04:14:47;0.70;99.90
18047;DHT22;9148;51.454;13.862;2024-02-26T04:17:13;0.70;99.90
18047;DHT22;9148;51.454;13.862;2024-02-26T04:19:39;0.60;99.90
18047;DHT22;9148;51.454;13.862;2024-02-26T04:22:04;0.70;99.90
18047;DHT22;9148;51.454;13.862;2024-02-26T04:24:30;0.50;99.90
18047;DHT22;9148;51.454;13.862;2024-02-26T04:26:56;0.40;99.90
18047;DHT22;9148;51.454;13.862;2024-02-26T04:29:21;0.50;99.90
18047;DHT22;9148;51.454;13.862;2024-02-26T04:31:47;0.50;99.90
18047;DHT22;9148;51.454;13.862;2024-02-26T04:34:13;0.40;99.90
18047;DHT22;9148;51.454;13.862;2024-02-26T04:36:39;0.30;99.90
18047;DHT22;9148;51.454;13.862;2024-02-26T04:39:04;0.30;99.90
18047;DHT22;9148;51.454;13.862;2024-02-26T04:41:30;0.40;99.90
18047;DHT22;9148;51.454;13.862;2024-02-26T04:43:55;0.30;99.90
18047;DHT22;9148;51.454;13.862;2024-02-26T04:46:21;0.30;99.90
18047;DHT22;9148;51.454;13.862;2024-02-26T04:48:47;0.30;99.90
18047;DHT22;9148;51.454;13.862;2024-02-26T04:51:13;0.20;99.90
18047;DHT22;9148;51.454;13.862;2024-02-26T04:53:39;0.20;99.90
18047;DHT22;9148;51.454;13.862;2024-02-26T04:56:04;0.20;99.90
18047;DHT22;9148;51.454;13.862;2024-02-26T04:58:30;0.20;99.90
18047;DHT22;9148;51.454;13.862;2024-02-26T05:00:56;0.20;99.90
18047;DHT22;9148;51.454;13.862;2024-02-26T05:03:21;0.20;99.90
18047;DHT22;9148;51.454;13.862;2024-02-26T05:05:47;0.10;99.90
18047;DHT22;9148;51.454;13.862;2024-02-26T05:08:13;-0.20;99.90
18047;DHT22;9148;51.454;13.862;2024-02-26T05:10:39;0.20;99.90
18047;DHT22;9148;51.454;13.862;2024-02-26T05:13:06;0.20;99.90
18047;DHT22;9148;51.454;13.862;2024-02-26T05:15:32;0.10;99.90
18047;DHT22;9148;51.454;13.862;2024-02-26T05:17:58;0.10;99.90
18047;DHT22;9148;51.454;13.862;2024-02-26T05:20:24;0.10;99.90
18047;DHT22;9148;51.454;13.862;2024-02-26T05:22:50;0.00;99.90
18047;DHT22;9148;51.454;13.862;2024-02-26T05:25:16;0.00;99.90
18047;DHT22;9148;51.454;13.862;2024-02-26T05:27:42;0.90;99.90
18047;DHT22;9148;51.454;13.862;2024-02-26T05:30:09;-0.10;99.90
18047;DHT22;9148;51.454;13.862;2024-02-26T05:32:35;-0.10;99.90
18047;DHT22;9148;51.454;13.862;2024-02-26T05:35:01;-0.30;99.90
18047;DHT22;9148;51.454;13.862;2024-02-26T05:37:29;-0.30;99.90
18047;DHT22;9148;51.454;13.862;2024-02-26T05:39:55;-0.40;99.90
18047;DHT22;9148;51.454;13.862;2024-02-26T05:42:20;-0.40;99.90
18047;DHT22;9148;51.454;13.862;2024-02-26T05:44:47;-0.40;99.90
18047;DHT22;9148;51.454;13.862;2024-02-26T05:47:13;-0.50;99.90
18047;DHT22;9148;51.454;13.862;2024-02-26T05:49:39;-0.40;99.90
18047;DHT22;9148;51.454;13.862;2024-02-26T05:52:05;-0.50;99.90
18047;DHT22;9148;51.454;13.862;2024-02-26T05:54:31;-0.50;99.90
18047;DHT22;9148;51.454;13.862;2024-02-26T05:56:57;-0.50;99.90
18047;DHT22;9148;51.454;13.862;2024-02-26T05:59:23;-0.60;99.90
18047;DHT22;9148;51.454;13.862;2024-02-26T06:01:49;-0.60;99.90
18047;DHT22;9148;51.454;13.862;2024-02-26T06:04:14;-0.60;99.90
18047;DHT22;9148;51.454;13.862;2024-02-26T06:06:40;-0.50;99.90
18047;DHT22;9148;51.454;13.862;2024-02-26T06:09:06;-0.60;99.90
18047;DHT22;9148;51.454;13.862;2024-02-26T06:11:32;-0.60;99.90
18047;DHT22;9148;51.454;13.862;2024-02-26T06:13:57;-0.70;99.90
18047;DHT22;9148;51.454;13.862;2024-02-26T06:16:23;-0.60;99.90
18047;DHT22;9148;51.454;13.862;2024-02-26T06:18:49;-0.70;99.90
18047;DHT22;9148;51.454;13.862;2024-02-26T06:21:15;-0.60;99.90
18047;DHT22;9148;51.454;13.862;2024-02-26T06:23:40;0.20;99.90
18047;DHT22;9148;51.454;13.862;2024-02-26T06:26:06;-0.40;99.90
18047;DHT22;9148;51.454;13.862;2024-02-26T06:28:32;-0.20;99.90
18047;DHT22;9148;51.454;13.862;2024-02-26T06:30:59;-0.20;99.90
18047;DHT22;9148;51.454;13.862;2024-02-26T06:33:25;0.00;99.90
18047;DHT22;9148;51.454;13.862;2024-02-26T06:35:50;0.20;99.90
18047;DHT22;9148;51.454;13.862;2024-02-26T06:38:16;0.50;99.90
18047;DHT22;9148;51.454;13.862;2024-02-26T06:40:43;1.60;99.90
18047;DHT22;9148;51.454;13.862;2024-02-26T06:43:09;0.80;99.90
18047;DHT22;9148;51.454;13.862;2024-02-26T06:45:35;1.00;99.90
18047;DHT22;9148;51.454;13.862;2024-02-26T06:48:01;1.20;99.90
18047;DHT22;9148;51.454;13.862;2024-02-26T06:50:27;1.50;99.90
18047;DHT22;9148;51.454;13.862;2024-02-26T06:52:53;1.60;99.90
18047;DHT22;9148;51.454;13.862;2024-02-26T06:55:19;2.00;99.90
18047;DHT22;9148;51.454;13.862;2024-02-26T06:57:44;2.20;99.90
18047;DHT22;9148;51.454;13.862;2024-02-26T07:00:11;1.90;99.90
18047;DHT22;9148;51.454;13.862;2024-02-26T07:02:44;2.70;99.90
18047;DHT22;9148;51.454;13.862;2024-02-26T07:05:10;2.90;99.90
18047;DHT22;9148;51.454;13.862;2024-02-26T07:07:36;3.20;99.90
18047;DHT22;9148;51.454;13.862;2024-02-26T07:10:02;3.40;99.90
18047;DHT22;9148;51.454;13.862;2024-02-26T07:12:33;3.50;99.90
18047;DHT22;9148;51.454;13.862;2024-02-26T07:14:59;4.80;99.90
18047;DHT22;9148;51.454;13.862;2024-02-26T07:17:26;3.90;99.90
18047;DHT22;9148;51.454;13.862;2024-02-26T07:19:51;4.10;99.90
18047;DHT22;9148;51.454;13.862;2024-02-26T07:22:17;4.30;99.90
18047;DHT22;9148;51.454;13.862;2024-02-26T07:24:42;4.30;99.90
18047;DHT22;9148;51.454;13.862;2024-02-26T07:27:08;5.30;99.90
18047;DHT22;9148;51.454;13.862;2024-02-26T07:29:34;4.90;99.90
18047;DHT22;9148;51.454;13.862;2024-02-26T07:32:00;4.50;99.90
18047;DHT22;9148;51.454;13.862;2024-02-26T07:34:25;5.10;99.90
18047;DHT22;9148;51.454;13.862;2024-02-26T07:36:55;4.50;99.90
18047;DHT22;9148;51.454;13.862;2024-02-26T07:39:21;5.00;99.90
18047;DHT22;9148;51.454;13.862;2024-02-26T07:41:47;4.60;99.90
18047;DHT22;9148;51.454;13.862;2024-02-26T07:44:15;5.30;99.90
18047;DHT22;9148;51.454;13.862;2024-02-26T07:46:41;4.90;99.90
18047;DHT22;9148;51.454;13.862;2024-02-26T07:49:06;5.20;99.90
18047;DHT22;9148;51.454;13.862;2024-02-26T07:51:33;6.40;99.90
18047;DHT22;9148;51.454;13.862;2024-02-26T07:54:00;6.60;99.90
18047;DHT22;9148;51.454;13.862;2024-02-26T07:56:26;5.90;99.90
18047;DHT22;9148;51.454;13.862;2024-02-26T07:58:51;6.30;99.90
18047;DHT22;9148;51.454;13.862;2024-02-26T08:01:17;6.50;99.90
18047;DHT22;9148;51.454;13.862;2024-02-26T08:03:43;7.20;99.90
18047;DHT22;9148;51.454;13.862;2024-02-26T08:06:09;7.50;99.90
18047;DHT22;9148;51.454;13.862;2024-02-26T08:08:34;7.10;99.90
18047;DHT22;9148;51.454;13.862;2024-02-26T08:11:00;7.30;99.90
18047;DHT22;9148;51.454;13.862;2024-02-26T08:13:26;7.50;99.90
18047;DHT22;9148;51.454;13.862;2024-02-26T08:15:52;7.70;99.90
18047;DHT22;9148;51.454;13.862;2024-02-26T08:18:17;7.90;99.90
18047;DHT22;9148;51.454;13.862;2024-02-26T08:20:44;8.20;99.90
18047;DHT22;9148;51.454;13.862;2024-02-26T08:23:10;8.60;99.90
18047;DHT22;9148;51.454;13.862;2024-02-26T08:25:35;8.80;99.90
18047;DHT22;9148;51.454;13.862;2024-02-26T08:28:01;9.10;99.90
18047;DHT22;9148;51.454;13.862;2024-02-26T08:30:27;9.40;99.90
18047;DHT22;9148;51.454;13.862;2024-02-26T08:32:53;9.70;99.90
18047;DHT22;9148;51.454;13.862;2024-02-26T08:35:19;10.00;99.90
18047;DHT22;9148;51.454;13.862;2024-02-26T08:37:45;10.10;99.90
18047;DHT22;9148;51.454;13.862;2024-02-26T08:40:11;10.30;99.90
18047;DHT22;9148;51.454;13.862;2024-02-26T08:42:37;10.40;99.90
18047;DHT22;9148;51.454;13.862;2024-02-26T08:45:03;10.60;99.90
18047;DHT22;9148;51.454;13.862;2024-02-26T08:47:29;10.70;99.90
18047;DHT22;9148;51.454;13.862;2024-02-26T08:49:54;10.80;99.90
18047;DHT22;9148;51.454;13.862;2024-02-26T08:52:20;10.80;99.90
18047;DHT22;9148;51.454;13.862;2024-02-26T08:54:47;10.90;99.90
18047;DHT22;9148;51.454;13.862;2024-02-26T08:57:13;11.00;99.90
18047;DHT22;9148;51.454;13.862;2024-02-26T08:59:38;11.00;99.90
18047;DHT22;9148;51.454;13.862;2024-02-26T09:02:04;11.00;99.90
18047;DHT22;9148;51.454;13.862;2024-02-26T09:04:29;10.90;99.90
18047;DHT22;9148;51.454;13.862;2024-02-26T09:07:02;11.00;99.90
18047;DHT22;9148;51.454;13.862;2024-02-26T09:09:27;11.10;99.90
18047;DHT22;9148;51.454;13.862;2024-02-26T09:11:53;11.40;99.90
18047;DHT22;9148;51.454;13.862;2024-02-26T09:14:20;11.50;99.90
18047;DHT22;9148;51.454;13.862;2024-02-26T09:16:46;11.90;99.90
18047;DHT22;9148;51.454;13.862;2024-02-26T09:19:14;12.20;99.90
18047;DHT22;9148;51.454;13.862;2024-02-26T09:21:46;12.40;99.90
18047;DHT22;9148;51.454;13.862;2024-02-26T09:24:12;12.70;99.90
18047;DHT22;9148;51.454;13.862;2024-02-26T09:26:38;12.90;99.90
18047;DHT22;9148;51.454;13.862;2024-02-26T09:29:04;13.10;99.90
18047;DHT22;9148;51.454;13.862;2024-02-26T09:31:30;13.30;99.90
18047;DHT22;9148;51.454;13.862;2024-02-26T09:33:56;13.50;99.90
18047;DHT22;9148;51.454;13.862;2024-02-26T09:36:21;13.70;99.90
18047;DHT22;9148;51.454;13.862;2024-02-26T09:38:48;13.90;99.90
18047;DHT22;9148;51.454;13.862;2024-02-26T09:41:16;14.10;99.90
18047;DHT22;9148;51.454;13.862;2024-02-26T09:43:44;14.40;99.40
18047;DHT22;9148;51.454;13.862;2024-02-26T09:46:11;14.60;98.90
18047;DHT22;9148;51.454;13.862;2024-02-26T09:48:37;14.80;98.00
18047;DHT22;9148;51.454;13.862;2024-02-26T09:51:03;15.00;97.60
18047;DHT22;9148;51.454;13.862;2024-02-26T09:53:30;15.20;97.10
18047;DHT22;9148;51.454;13.862;2024-02-26T09:56:00;15.20;96.70
18047;DHT22;9148;51.454;13.862;2024-02-26T09:58:28;15.40;96.60
18047;DHT22;9148;51.454;13.862;2024-02-26T10:00:56;15.50;96.30
18047;DHT22;9148;51.454;13.862;2024-02-26T10:03:40;15.70;96.10
18047;DHT22;9148;51.454;13.862;2024-02-26T10:06:08;16.00;95.30
18047;DHT22;9148;51.454;13.862;2024-02-26T10:08:35;16.30;95.00
18047;DHT22;9148;51.454;13.862;2024-02-26T10:11:05;16.50;94.50
18047;DHT22;9148;51.454;13.862;2024-02-26T10:13:32;16.90;94.20
18047;DHT22;9148;51.454;13.862;2024-02-26T10:15:58;17.10;93.50
18047;DHT22;9148;51.454;13.862;2024-02-26T10:18:24;17.30;93.10
18047;DHT22;9148;51.454;13.862;2024-02-26T10:21:02;17.50;92.50
18047;DHT22;9148;51.454;13.862;2024-02-26T10:23:28;17.60;92.00
18047;DHT22;9148;51.454;13.862;2024-02-26T10:25:54;17.60;91.10
18047;DHT22;9148;51.454;13.862;2024-02-26T10:28:20;17.70;90.70
18047;DHT22;9148;51.454;13.862;2024-02-26T10:30:46;17.70;90.40
18047;DHT22;9148;51.454;13.862;2024-02-26T10:33:12;17.80;90.20
18047;DHT22;9148;51.454;13.862;2024-02-26T10:35:39;17.80;89.30
18047;DHT22;9148;51.454;13.862;2024-02-26T10:38:10;18.00;86.60
18047;DHT22;9148;51.454;13.862;2024-02-26T10:40:36;18.00;85.10
18047;DHT22;9148;51.454;13.862;2024-02-26T10:43:02;18.00;85.50
18047;DHT22;9148;51.454;13.862;2024-02-26T10:45:27;18.00;85.50
18047;DHT22;9148;51.454;13.862;2024-02-26T10:47:53;18.10;85.10
18047;DHT22;9148;51.454;13.862;2024-02-26T10:50:19;18.10;84.00
18047;DHT22;9148;51.454;13.862;2024-02-26T10:52:45;18.10;83.40
18047;DHT22;9148;51.454;13.862;2024-02-26T10:55:15;18.20;83.20
18047;DHT22;9148;51.454;13.862;2024-02-26T10:57:45;18.30;83.10
18047;DHT22;9148;51.454;13.862;2024-02-26T11:00:14;18.40;82.60
18047;DHT22;9148;51.454;13.862;2024-02-26T11:02:41;18.60;80.40
18047;DHT22;9148;51.454;13.862;2024-02-26T11:05:07;18.70;79.80
18047;DHT22;9148;51.454;13.862;2024-02-26T11:07:34;18.80;78.30
18047;DHT22;9148;51.454;13.862;2024-02-26T11:10:03;19.00;78.10
18047;DHT22;9148;51.454;13.862;2024-02-26T11:12:32;19.10;77.90
18047;DHT22;9148;51.454;13.862;2024-02-26T11:15:01;19.20;77.30
18047;DHT22;9148;51.454;13.862;2024-02-26T11:17:28;19.40;75.70
18047;DHT22;9148;51.454;13.862;2024-02-26T11:19:58;19.50;68.80
18047;DHT22;9148;51.454;13.862;2024-02-26T11:22:25;19.40;70.20
18047;DHT22;9148;51.454;13.862;2024-02-26T11:24:55;19.30;70.70
18047;DHT22;9148;51.454;13.862;2024-02-26T11:27:51;19.40;69.60
18047;DHT22;9148;51.454;13.862;2024-02-26T11:30:26;19.50;70.40
18047;DHT22;9148;51.454;13.862;2024-02-26T11:32:52;19.60;70.40
18047;DHT22;9148;51.454;13.862;2024-02-26T11:35:19;19.70;70.00
18047;DHT22;9148;51.454;13.862;2024-02-26T11:37:55;19.90;69.70
18047;DHT22;9148;51.454;13.862;2024-02-26T11:40:25;19.90;66.40
18047;DHT22;9148;51.454;13.862;2024-02-26T11:42:51;19.70;65.90
18047;DHT22;9148;51.454;13.862;2024-02-26T11:48:03;19.20;66.10
18047;DHT22;9148;51.454;13.862;2024-02-26T11:50:39;18.90;66.20
18047;DHT22;9148;51.454;13.862;2024-02-26T11:53:22;18.90;66.70
18047;DHT22;9148;51.454;13.862;2024-02-26T11:59:00;18.70;65.20
18047;DHT22;9148;51.454;13.862;2024-02-26T12:01:43;18.50;63.70
18047;DHT22;9148;51.454;13.862;2024-02-26T12:04:24;18.20;65.10
18047;DHT22;9148;51.454;13.862;2024-02-26T12:07:00;18.20;66.40
18047;DHT22;9148;51.454;13.862;2024-02-26T12:12:06;18.30;65.80
18047;DHT22;9148;51.454;13.862;2024-02-26T12:14:34;18.30;65.60
18047;DHT22;9148;51.454;13.862;2024-02-26T12:17:03;18.20;66.50
18047;DHT22;9148;51.454;13.862;2024-02-26T12:19:33;18.20;65.50
18047;DHT22;9148;51.454;13.862;2024-02-26T12:22:00;18.10;65.70
18047;DHT22;9148;51.454;13.862;2024-02-26T12:24:26;18.10;66.40
18047;DHT22;9148;51.454;13.862;2024-02-26T12:26:52;18.00;66.80
18047;DHT22;9148;51.454;13.862;2024-02-26T12:29:17;17.90;65.20
18047;DHT22;9148;51.454;13.862;2024-02-26T12:31:43;17.70;65.50
18047;DHT22;9148;51.454;13.862;2024-02-26T12:34:09;17.50;66.20
18047;DHT22;9148;51.454;13.862;2024-02-26T12:36:35;17.40;66.80
18047;DHT22;9148;51.454;13.862;2024-02-26T12:39:04;17.50;66.60
18047;DHT22;9148;51.454;13.862;2024-02-26T12:41:35;17.00;67.90
18047;DHT22;9148;51.454;13.862;2024-02-26T12:44:01;17.10;68.70
18047;DHT22;9148;51.454;13.862;2024-02-26T12:46:27;17.00;68.20
18047;DHT22;9148;51.454;13.862;2024-02-26T12:48:55;16.90;68.60
18047;DHT22;9148;51.454;13.862;2024-02-26T12:51:23;17.00;69.30
18047;DHT22;9148;51.454;13.862;2024-02-26T12:53:50;17.10;67.50
18047;DHT22;9148;51.454;13.862;2024-02-26T12:56:18;17.00;67.90
18047;DHT22;9148;51.454;13.862;2024-02-26T12:58:44;16.90;67.90
18047;DHT22;9148;51.454;13.862;2024-02-26T13:01:15;16.80;68.50
18047;DHT22;9148;51.454;13.862;2024-02-26T13:03:42;16.60;67.90
18047;DHT22;9148;51.454;13.862;2024-02-26T13:06:08;16.40;69.30
18047;DHT22;9148;51.454;13.862;2024-02-26T13:08:34;16.30;69.70
18047;DHT22;9148;51.454;13.862;2024-02-26T13:11:00;16.10;70.40
18047;DHT22;9148;51.454;13.862;2024-02-26T13:13:26;16.00;70.80
18047;DHT22;9148;51.454;13.862;2024-02-26T13:16:05;15.90;70.90
18047;DHT22;9148;51.454;13.862;2024-02-26T13:18:33;15.80;71.30
18047;DHT22;9148;51.454;13.862;2024-02-26T13:21:25;15.70;72.00
18047;DHT22;9148;51.454;13.862;2024-02-26T13:23:53;15.60;72.70
18047;DHT22;9148;51.454;13.862;2024-02-26T13:26:22;15.50;72.90
18047;DHT22;9148;51.454;13.862;2024-02-26T13:29:00;15.40;73.30
18047;DHT22;9148;51.454;13.862;2024-02-26T13:31:31;15.30;73.70
18047;DHT22;9148;51.454;13.862;2024-02-26T13:33:57;15.20;74.00
18047;DHT22;9148;51.454;13.862;2024-02-26T13:36:24;15.00;74.50
18047;DHT22;9148;51.454;13.862;2024-02-26T13:38:55;15.00;75.10
18047;DHT22;9148;51.454;13.862;2024-02-26T13:41:21;14.90;75.70
18047;DHT22;9148;51.454;13.862;2024-02-26T13:43:47;14.80;76.30
18047;DHT22;9148;51.454;13.862;2024-02-26T13:46:14;14.70;76.60
18047;DHT22;9148;51.454;13.862;2024-02-26T13:48:41;14.70;77.10
18047;DHT22;9148;51.454;13.862;2024-02-26T13:51:07;14.60;77.40
18047;DHT22;9148;51.454;13.862;2024-02-26T13:53:33;14.60;77.80
18047;DHT22;9148;51.454;13.862;2024-02-26T13:55:58;14.50;78.20
18047;DHT22;9148;51.454;13.862;2024-02-26T13:58:27;14.50;78.90
18047;DHT22;9148;51.454;13.862;2024-02-26T14:00:53;14.40;79.20
18047;DHT22;9148;51.454;13.862;2024-02-26T14:03:22;14.30;79.40
18047;DHT22;9148;51.454;13.862;2024-02-26T14:05:47;14.20;80.00
18047;DHT22;9148;51.454;13.862;2024-02-26T14:08:14;14.00;80.40
18047;DHT22;9148;51.454;13.862;2024-02-26T14:10:40;14.00;81.00
18047;DHT22;9148;51.454;13.862;2024-02-26T14:13:05;13.90;81.50
18047;DHT22;9148;51.454;13.862;2024-02-26T14:15:32;13.80;82.10
18047;DHT22;9148;51.454;13.862;2024-02-26T14:18:00;13.80;82.90
18047;DHT22;9148;51.454;13.862;2024-02-26T14:20:28;13.70;84.10
18047;DHT22;9148;51.454;13.862;2024-02-26T14:22:54;13.70;83.80
18047;DHT22;9148;51.454;13.862;2024-02-26T14:25:20;13.60;84.10
18047;DHT22;9148;51.454;13.862;2024-02-26T14:27:47;13.50;84.30
18047;DHT22;9148;51.454;13.862;2024-02-26T14:30:14;13.40;84.90
18047;DHT22;9148;51.454;13.862;2024-02-26T14:32:40;13.30;85.40
18047;DHT22;9148;51.454;13.862;2024-02-26T14:35:07;13.20;85.80
18047;DHT22;9148;51.454;13.862;2024-02-26T14:37:34;13.20;86.10
18047;DHT22;9148;51.454;13.862;2024-02-26T14:40:01;13.10;86.40
18047;DHT22;9148;51.454;13.862;2024-02-26T14:42:28;13.00;86.80
18047;DHT22;9148;51.454;13.862;2024-02-26T14:44:54;13.00;87.20
18047;DHT22;9148;51.454;13.862;2024-02-26T14:47:20;12.90;87.60
18047;DHT22;9148;51.454;13.862;2024-02-26T14:49:46;12.90;88.00
18047;DHT22;9148;51.454;13.862;2024-02-26T14:52:14;12.90;88.40
18047;DHT22;9148;51.454;13.862;2024-02-26T14:54:40;12.80;88.70
18047;DHT22;9148;51.454;13.862;2024-02-26T14:57:06;12.80;89.10
18047;DHT22;9148;51.454;13.862;2024-02-26T14:59:32;12.80;89.40
18047;DHT22;9148;51.454;13.862;2024-02-26T15:01:59;12.80;90.00
18047;DHT22;9148;51.454;13.862;2024-02-26T15:04:27;12.70;90.10
18047;DHT22;9148;51.454;13.862;2024-02-26T15:06:53;12.60;90.20
18047;DHT22;9148;51.454;13.862;2024-02-26T15:09:19;12.60;90.40
18047;DHT22;9148;51.454;13.862;2024-02-26T15:11:44;12.60;90.60
18047;DHT22;9148;51.454;13.862;2024-02-26T15:14:10;12.50;90.70
18047;DHT22;9148;51.454;13.862;2024-02-26T15:16:36;12.50;90.80
18047;DHT22;9148;51.454;13.862;2024-02-26T15:19:02;12.40;90.90
18047;DHT22;9148;51.454;13.862;2024-02-26T15:21:29;12.50;91.10
18047;DHT22;9148;51.454;13.862;2024-02-26T15:23:55;12.40;91.20
18047;DHT22;9148;51.454;13.862;2024-02-26T15:26:21;12.50;91.40
18047;DHT22;9148;51.454;13.862;2024-02-26T15:28:47;12.50;91.50
18047;DHT22;9148;51.454;13.862;2024-02-26T15:31:15;12.50;91.60
18047;DHT22;9148;51.454;13.862;2024-02-26T15:33:41;12.50;91.70
18047;DHT22;9148;51.454;13.862;2024-02-26T15:36:08;12.50;91.90
18047;DHT22;9148;51.454;13.862;2024-02-26T15:38:37;12.50;92.00
18047;DHT22;9148;51.454;13.862;2024-02-26T15:41:11;12.50;92.20
18047;DHT22;9148;51.454;13.862;2024-02-26T15:43:37;12.50;92.30